createdAt,value
2022-08-22T00:01:47.116Z,99.9
2022-08-22T00:02:47.978Z,87.8
2022-08-22T00:02:49.334Z,99.9
2022-08-22T00:02:49.335Z,99.9
2022-08-22T00:02:54.492Z,99.9
2022-08-22T00:02:55.811Z,99.9
2022-08-22T00:03:07.725Z,99.9
2022-08-22T00:03:09.681Z,99.9
2022-08-22T00:03:11.174Z,99.9
2022-08-22T00:03:11.474Z,99.9
2022-08-22T00:04:17.147Z,99.9
2022-08-22T00:09:17.220Z,99.9
2022-08-22T00:11:47.220Z,99.9
2022-08-22T00:14:17.264Z,99.9
2022-08-22T00:16:47.261Z,99.9
2022-08-22T00:19:17.296Z,99.9
2022-08-22T00:21:47.340Z,99.9
2022-08-22T00:24:17.327Z,99.9
2022-08-22T00:26:47.374Z,99.9
2022-08-22T00:29:17.376Z,99.9
2022-08-22T00:31:47.432Z,99.9
2022-08-22T00:34:17.427Z,99.9
2022-08-22T00:36:47.799Z,99.9
2022-08-22T00:41:47.493Z,99.9
2022-08-22T00:44:17.527Z,99.9
2022-08-22T00:46:47.564Z,99.9
2022-08-22T00:49:17.572Z,99.9
2022-08-22T00:51:47.606Z,99.9
2022-08-22T00:54:18.318Z,99.9
2022-08-22T00:59:23.954Z,99.9
2022-08-22T01:01:47.701Z,99.9
2022-08-22T01:04:17.712Z,99.9
2022-08-22T01:06:47.759Z,99.9
2022-08-22T01:09:17.775Z,99.9
2022-08-22T01:11:47.803Z,99.9
2022-08-22T01:14:17.819Z,99.9
2022-08-22T01:16:47.849Z,99.9
2022-08-22T01:19:17.856Z,99.9
2022-08-22T01:21:47.885Z,99.9
2022-08-22T01:24:17.925Z,99.9
2022-08-22T01:26:47.929Z,99.9
2022-08-22T01:29:17.966Z,99.9
2022-08-22T01:31:47.978Z,99.9
2022-08-22T01:34:18.018Z,99.9
2022-08-22T01:36:48.039Z,99.9
2022-08-22T01:39:18.044Z,99.9
2022-08-22T01:41:48.084Z,99.9
2022-08-22T01:44:18.101Z,99.9
2022-08-22T01:46:48.123Z,99.9
2022-08-22T01:49:18.132Z,99.9
2022-08-22T01:54:18.196Z,99.9
2022-08-22T01:56:48.206Z,99.9
2022-08-22T01:59:18.234Z,99.9
2022-08-22T02:01:48.257Z,99.9
2022-08-22T02:04:18.291Z,99.9
2022-08-22T02:06:48.323Z,99.9
2022-08-22T02:09:18.355Z,99.9
2022-08-22T02:14:18.391Z,99.9
2022-08-22T02:16:48.427Z,99.9
2022-08-22T02:19:18.420Z,99.9
2022-08-22T02:24:18.478Z,99.9
2022-08-22T02:26:48.517Z,99.9
2022-08-22T02:29:18.570Z,99.9
2022-08-22T02:31:48.559Z,99.9
2022-08-22T02:34:18.574Z,99.9
2022-08-22T02:36:48.581Z,99.9
2022-08-22T02:39:18.613Z,99.9
2022-08-22T02:41:48.652Z,99.9
2022-08-22T02:44:18.660Z,99.9
2022-08-22T02:46:48.694Z,99.9
2022-08-22T02:49:18.729Z,99.9
2022-08-22T02:51:48.733Z,99.9
2022-08-22T02:56:48.797Z,99.9
2022-08-22T02:59:18.805Z,99.9
2022-08-22T03:01:48.849Z,99.9
2022-08-22T03:06:48.877Z,99.9
2022-08-22T03:09:18.914Z,99.9
2022-08-22T03:11:48.949Z,99.9
2022-08-22T03:14:19.151Z,99.9
2022-08-22T03:19:19.123Z,99.9
2022-08-22T03:21:49.030Z,99.9
2022-08-22T03:24:19.056Z,99.9
2022-08-22T03:26:49.086Z,99.9
2022-08-22T03:29:19.101Z,99.9
2022-08-22T03:31:49.110Z,99.9
2022-08-22T03:34:19.134Z,99.9
2022-08-22T03:36:49.163Z,99.9
2022-08-22T03:44:19.224Z,99.9
2022-08-22T03:46:49.241Z,99.9
2022-08-22T03:54:19.322Z,99.9
2022-08-22T03:56:49.359Z,99.9
2022-08-22T03:59:19.368Z,99.9
2022-08-22T04:01:49.403Z,99.9
2022-08-22T04:04:19.424Z,99.9
2022-08-22T04:06:49.432Z,99.9
2022-08-22T04:09:19.467Z,99.9
2022-08-22T04:11:49.487Z,99.9
2022-08-22T04:14:19.511Z,99.9
2022-08-22T04:16:49.537Z,99.9
2022-08-22T04:21:49.580Z,99.9
2022-08-22T04:24:19.597Z,99.9
2022-08-22T04:26:49.629Z,99.9
2022-08-22T04:31:49.680Z,99.9
2022-08-22T04:36:49.926Z,99.9
2022-08-22T04:41:49.773Z,99.9
2022-08-22T04:44:19.802Z,99.9
2022-08-22T04:49:19.849Z,99.9
2022-08-22T04:51:49.868Z,99.9
2022-08-22T04:54:19.888Z,99.9
2022-08-22T04:56:50.323Z,99.9
2022-08-22T04:59:19.936Z,99.9
2022-08-22T05:01:50.023Z,99.9
2022-08-22T05:09:20.055Z,99.9
2022-08-22T05:11:50.058Z,99.9
2022-08-22T05:14:20.084Z,99.9
2022-08-22T05:16:50.102Z,99.9
2022-08-22T05:21:50.146Z,99.9
2022-08-22T05:24:20.178Z,99.9
2022-08-22T05:26:50.202Z,99.9
2022-08-22T05:29:20.226Z,99.9
2022-08-22T05:31:50.254Z,99.9
2022-08-22T05:34:20.271Z,99.9
2022-08-22T05:39:20.322Z,99.9
2022-08-22T05:41:50.334Z,99.9
2022-08-22T05:44:20.374Z,99.9
2022-08-22T05:46:50.496Z,99.9
2022-08-22T05:49:20.430Z,99.9
2022-08-22T05:54:20.451Z,99.9
2022-08-22T05:56:50.470Z,99.9
2022-08-22T06:01:50.745Z,99.9
2022-08-22T06:04:20.558Z,99.9
2022-08-22T06:06:50.570Z,99.9
2022-08-22T06:09:20.608Z,99.9
2022-08-22T06:11:51.879Z,99.9
2022-08-22T06:14:20.653Z,99.9
2022-08-22T06:16:50.667Z,99.9
2022-08-22T06:21:50.720Z,99.9
2022-08-22T06:26:50.763Z,99.9
2022-08-22T06:29:20.786Z,99.9
2022-08-22T06:31:50.804Z,99.9
2022-08-22T06:34:20.818Z,99.9
2022-08-22T06:36:50.843Z,99.9
2022-08-22T06:39:20.878Z,99.9
2022-08-22T06:41:50.897Z,99.9
2022-08-22T06:44:20.917Z,99.9
2022-08-22T06:46:50.946Z,99.9
2022-08-22T06:49:20.957Z,99.9
2022-08-22T06:51:50.988Z,99.9
2022-08-22T06:54:21.029Z,99.9
2022-08-22T06:56:51.079Z,99.9
2022-08-22T06:59:21.064Z,99.9
2022-08-22T07:04:21.115Z,99.9
2022-08-22T07:06:51.125Z,99.9
2022-08-22T07:09:21.160Z,99.9
2022-08-22T07:11:51.197Z,99.9
2022-08-22T07:14:21.216Z,99.9
2022-08-22T07:16:51.224Z,99.9
2022-08-22T07:19:21.260Z,99.9
2022-08-22T07:24:21.315Z,99.9
2022-08-22T07:26:51.318Z,99.9
2022-08-22T07:31:51.377Z,99.9
2022-08-22T07:36:51.448Z,99.9
2022-08-22T07:39:21.552Z,99.9
2022-08-22T07:46:51.513Z,99.9
2022-08-22T07:49:21.547Z,99.9
2022-08-22T07:51:51.573Z,99.9
2022-08-22T07:54:21.611Z,99.9
2022-08-22T07:56:51.617Z,99.9
2022-08-22T08:01:51.755Z,99.9
2022-08-22T08:04:21.675Z,99.9
2022-08-22T08:06:51.707Z,99.9
2022-08-22T08:09:21.720Z,99.9
2022-08-22T08:11:51.747Z,99.9
2022-08-22T08:14:21.796Z,99.9
2022-08-22T08:16:51.809Z,99.9
2022-08-22T08:21:51.925Z,99.9
2022-08-22T08:24:21.876Z,99.9
2022-08-22T08:26:51.895Z,99.9
2022-08-22T08:29:21.910Z,99.9
2022-08-22T08:31:51.948Z,99.9
2022-08-22T08:36:52.001Z,99.9
2022-08-22T08:44:22.074Z,99.9
2022-08-22T08:46:55.818Z,99.9
2022-08-22T08:49:24.140Z,99.9
2022-08-22T08:54:22.171Z,99.9
2022-08-22T08:56:54.290Z,99.9
2022-08-22T08:59:22.196Z,99.9
2022-08-22T09:01:52.221Z,99.9
2022-08-22T09:04:22.238Z,99.9
2022-08-22T09:06:54.744Z,99.9
2022-08-22T09:09:22.314Z,99.9
2022-08-22T09:11:52.320Z,99.9
2022-08-22T09:14:22.359Z,99.4
2022-08-22T09:16:52.380Z,99.3
2022-08-22T09:19:22.383Z,99.1
2022-08-22T09:21:52.425Z,98.7
2022-08-22T09:24:23.301Z,98.2
2022-08-22T09:29:22.489Z,97.3
2022-08-22T09:31:55.856Z,96.9
2022-08-22T09:34:24.087Z,96.8
2022-08-22T09:36:52.573Z,96.9
2022-08-22T09:39:22.586Z,96.8
2022-08-22T09:41:52.614Z,97
2022-08-22T09:44:22.635Z,97.3
2022-08-22T09:46:52.657Z,97.6
2022-08-22T09:51:52.714Z,97.7
2022-08-22T09:54:22.722Z,97.6
2022-08-22T09:56:52.747Z,97.1
2022-08-22T09:59:22.776Z,96.6
2022-08-22T10:01:52.786Z,96
2022-08-22T10:04:22.817Z,95.7
2022-08-22T10:06:52.836Z,95.5
2022-08-22T10:09:26.788Z,94.7
2022-08-22T10:11:52.893Z,94.3
2022-08-22T10:14:22.903Z,93.6
2022-08-22T10:21:52.997Z,92.7
2022-08-22T10:24:25.533Z,92.3
2022-08-22T10:26:53.032Z,90
2022-08-22T10:31:59.580Z,89.4
2022-08-22T10:34:23.100Z,81.69
2022-08-22T10:36:53.458Z,80.3
2022-08-22T10:39:23.158Z,80.5
2022-08-22T10:41:53.179Z,80.6
2022-08-22T10:44:23.223Z,81.8
2022-08-22T10:46:53.211Z,81.69
2022-08-22T10:49:23.284Z,82
2022-08-22T10:51:53.278Z,82.1
2022-08-22T10:54:23.294Z,82.2
2022-08-22T10:56:53.302Z,81.6
2022-08-22T10:59:23.344Z,81
2022-08-22T11:01:53.412Z,80.6
2022-08-22T11:04:28.063Z,79.5
2022-08-22T11:06:53.391Z,78.3
2022-08-22T11:09:23.430Z,74.5
2022-08-22T11:11:53.448Z,74
2022-08-22T11:14:23.461Z,73.69
2022-08-22T11:16:55.317Z,73.3
2022-08-22T11:19:23.525Z,73
2022-08-22T11:21:53.542Z,72.4
2022-08-22T11:24:34.904Z,71
2022-08-22T11:26:53.587Z,70.69
2022-08-22T11:29:23.607Z,70.3
2022-08-22T11:31:53.647Z,70
2022-08-22T11:34:23.665Z,69.8
2022-08-22T11:39:23.710Z,68.9
2022-08-22T11:41:53.724Z,68.8
2022-08-22T11:44:25.618Z,67.8
2022-08-22T11:46:53.786Z,67.4
2022-08-22T11:49:26.717Z,66.8
2022-08-22T11:51:53.829Z,66
2022-08-22T11:54:30.939Z,65.1
2022-08-22T11:56:53.876Z,63.8
2022-08-22T12:01:53.964Z,61.2
2022-08-22T12:04:23.965Z,60.6
2022-08-22T12:06:54.459Z,60.3
2022-08-22T12:11:54.054Z,60.2
2022-08-22T12:14:26.998Z,59.9
2022-08-22T12:16:54.070Z,59.8
2022-08-22T12:19:24.090Z,59
2022-08-22T12:26:54.825Z,58.1
2022-08-22T12:29:28.561Z,56.6
2022-08-22T12:31:54.219Z,56.1
2022-08-22T12:34:24.231Z,55.8
2022-08-22T12:36:54.253Z,54.8
2022-08-22T12:41:54.304Z,54.1
2022-08-22T12:46:54.345Z,52.6
2022-08-22T12:49:24.377Z,51.7
2022-08-22T12:51:55.834Z,51.4
2022-08-22T12:54:24.416Z,50.8
2022-08-22T13:01:54.587Z,50.6
2022-08-22T13:04:33.401Z,51.1
2022-08-22T13:06:54.542Z,51.4
2022-08-22T13:09:28.956Z,51.5
2022-08-22T13:11:54.599Z,51.7
2022-08-22T13:14:26.079Z,51.2
2022-08-22T13:16:54.629Z,50.2
2022-08-22T13:19:24.668Z,50.3
2022-08-22T13:21:54.707Z,50.3
2022-08-22T13:24:38.552Z,50.2
2022-08-22T13:26:54.734Z,50.2
2022-08-22T13:29:26.647Z,50.1
2022-08-22T13:31:55.199Z,50.2
2022-08-22T13:34:24.862Z,49.3
2022-08-22T13:36:54.851Z,48.9
2022-08-22T13:39:24.861Z,48.7
2022-08-22T13:41:54.886Z,48.7
2022-08-22T13:44:24.890Z,48.4
2022-08-22T13:47:13.878Z,48.3
2022-08-22T13:49:24.970Z,48.7
2022-08-22T13:51:54.964Z,49.3
2022-08-22T13:56:55.203Z,50.1
2022-08-22T13:59:47.098Z,50.4
2022-08-22T14:01:55.284Z,50.5
2022-08-22T14:04:32.331Z,51
2022-08-22T14:06:55.131Z,50.8
2022-08-22T14:09:31.230Z,50.6
2022-08-22T14:11:55.172Z,50.4
2022-08-22T14:14:25.187Z,50.3
2022-08-22T14:16:55.223Z,50.3
2022-08-22T14:19:27.138Z,50
2022-08-22T14:21:55.321Z,51.1
2022-08-22T14:24:26.922Z,50.9
2022-08-22T14:26:57.921Z,50.8
2022-08-22T14:29:25.331Z,49.3
2022-08-22T14:31:55.350Z,49
2022-08-22T14:34:25.371Z,49.1
2022-08-22T14:39:25.446Z,48.4
2022-08-22T14:41:59.449Z,48.2
2022-08-22T14:44:25.469Z,48.3
2022-08-22T14:46:55.543Z,48.2
2022-08-22T14:49:25.520Z,47.7
2022-08-22T14:51:55.543Z,47.5
2022-08-22T14:54:29.168Z,46.9
2022-08-22T14:56:55.599Z,46.1
2022-08-22T14:59:25.647Z,45.9
2022-08-22T15:01:55.716Z,45.7
2022-08-22T15:04:25.699Z,45.3
2022-08-22T15:06:55.709Z,45.5
2022-08-22T15:09:25.726Z,45.3
2022-08-22T15:11:55.764Z,45.6
2022-08-22T15:14:25.789Z,45.7
2022-08-22T15:16:55.792Z,46.1
2022-08-22T15:21:55.849Z,46.7
2022-08-22T15:24:25.867Z,46.9
2022-08-22T15:26:55.899Z,46.9
2022-08-22T15:31:55.979Z,47
2022-08-22T15:36:56.152Z,44.8
2022-08-22T15:41:56.065Z,39.3
2022-08-22T15:49:26.094Z,33.09
2022-08-22T15:51:56.126Z,31.2
2022-08-22T15:59:26.212Z,29.3
2022-08-22T16:01:56.299Z,28.8
2022-08-22T16:04:26.261Z,28.5
2022-08-22T16:11:56.347Z,27.8
2022-08-22T16:14:26.351Z,27.7
2022-08-22T16:16:56.362Z,27.6
2022-08-22T16:19:26.416Z,27.5
2022-08-22T16:24:26.463Z,27.5
2022-08-22T16:26:56.501Z,27.5
2022-08-22T16:29:26.519Z,27.4
2022-08-22T16:31:56.527Z,27.4
2022-08-22T16:41:56.628Z,27.2
2022-08-22T16:44:26.662Z,27.2
2022-08-22T16:49:26.731Z,27.2
2022-08-22T16:51:56.746Z,27.1
2022-08-22T16:59:26.849Z,27.5
2022-08-22T17:01:56.864Z,27.5
2022-08-22T17:04:26.874Z,27.7
2022-08-22T17:14:26.970Z,36
2022-08-22T17:16:56.997Z,36.7
2022-08-22T17:26:57.093Z,33.4
2022-08-22T17:31:57.147Z,33.59
2022-08-22T17:36:57.201Z,37.59
2022-08-22T17:44:27.271Z,39
2022-08-22T17:51:57.355Z,40.3
2022-08-22T18:04:27.483Z,45.1
2022-08-22T18:06:57.522Z,45.7
2022-08-22T18:09:27.537Z,46.1
2022-08-22T18:16:57.606Z,47.9
2022-08-22T18:24:32.622Z,49.5
2022-08-22T18:26:57.694Z,50
2022-08-22T18:29:27.722Z,50.1
2022-08-22T18:34:27.984Z,50.5
2022-08-22T18:36:57.793Z,50.9
2022-08-22T18:39:29.052Z,51.1
2022-08-22T18:41:57.850Z,51.3
2022-08-22T18:44:27.867Z,51.6
2022-08-22T18:46:57.926Z,51.9
2022-08-22T18:49:27.920Z,52.3
2022-08-22T18:51:57.954Z,53.4
2022-08-22T18:54:27.982Z,53.6
2022-08-22T18:56:57.988Z,54.6
2022-08-22T18:59:28.017Z,55.1
2022-08-22T19:01:58.095Z,56.3
2022-08-22T19:04:28.064Z,57.1
2022-08-22T19:06:58.093Z,57.6
2022-08-22T19:09:28.131Z,58.1
2022-08-22T19:11:58.152Z,58.7
2022-08-22T19:14:28.164Z,59.6
2022-08-22T19:16:58.234Z,60.1
2022-08-22T19:19:28.224Z,60.6
2022-08-22T19:21:58.231Z,61.3
2022-08-22T19:24:28.283Z,62.2
2022-08-22T19:26:58.331Z,62.9
2022-08-22T19:29:28.303Z,63.8
2022-08-22T19:31:58.349Z,64.6
2022-08-22T19:34:28.365Z,66
2022-08-22T19:36:58.396Z,66.19
2022-08-22T19:39:28.419Z,67.19
2022-08-22T19:41:58.428Z,68
2022-08-22T19:44:28.452Z,68.4
2022-08-22T19:46:58.468Z,69.3
2022-08-22T19:49:28.501Z,70.3
2022-08-22T19:51:58.526Z,71.19
2022-08-22T19:54:28.554Z,71.8
2022-08-22T19:56:58.589Z,73.1
2022-08-22T19:59:28.598Z,73.3
2022-08-22T20:01:58.629Z,73.9
2022-08-22T20:04:28.640Z,74.3
2022-08-22T20:06:58.671Z,74.8
2022-08-22T20:09:28.693Z,75.6
2022-08-22T20:11:58.738Z,75.9
2022-08-22T20:14:30.055Z,76.4
2022-08-22T20:16:58.769Z,76.8
2022-08-22T20:19:28.797Z,77.3
2022-08-22T20:24:28.846Z,77.9
2022-08-22T20:27:13.386Z,78.4
2022-08-22T20:29:28.895Z,79.1
2022-08-22T20:31:59.100Z,79.5
2022-08-22T20:34:28.930Z,80.5
2022-08-22T20:41:59.020Z,81.9
2022-08-22T20:44:29.040Z,84.1
2022-08-22T20:46:59.064Z,86.2
2022-08-22T20:49:29.073Z,87.6
2022-08-22T20:51:59.099Z,87.9
2022-08-22T20:54:29.119Z,88.5
2022-08-22T20:56:59.162Z,89.2
2022-08-22T20:59:29.186Z,90.2
2022-08-22T21:01:59.224Z,90.9
2022-08-22T21:04:29.212Z,91.3
2022-08-22T21:06:59.243Z,91.6
2022-08-22T21:09:29.267Z,92
2022-08-22T21:11:59.297Z,92.3
2022-08-22T21:14:29.337Z,92.9
2022-08-22T21:16:59.351Z,93.3
2022-08-22T21:19:29.358Z,93.7
2022-08-22T21:21:59.391Z,94.2
2022-08-22T21:24:29.417Z,94.6
2022-08-22T21:26:59.439Z,94.8
2022-08-22T21:32:04.951Z,94.8
2022-08-22T21:34:29.518Z,95.1
2022-08-22T21:36:59.539Z,95.4
2022-08-22T21:39:29.552Z,95.8
2022-08-22T21:41:59.593Z,96.3
2022-08-22T21:46:59.797Z,96.9
2022-08-22T21:49:29.658Z,97.4
2022-08-22T21:51:59.673Z,97.7
2022-08-22T21:54:29.708Z,98
2022-08-22T21:56:59.736Z,98.4
2022-08-22T22:01:59.782Z,99.3
2022-08-22T22:04:29.790Z,99.5
2022-08-22T22:06:59.821Z,99.7
2022-08-22T22:09:29.825Z,99.9
2022-08-22T22:11:59.868Z,99.9
2022-08-22T22:14:29.889Z,99.9
2022-08-22T22:16:59.904Z,99.9
2022-08-22T22:19:30.268Z,99.9
2022-08-22T22:22:00.144Z,99.9
2022-08-22T22:24:29.972Z,99.9
2022-08-22T22:27:00.014Z,99.9
2022-08-22T22:29:30.033Z,99.9
2022-08-22T22:32:00.087Z,99.9
2022-08-22T22:34:30.072Z,99.9
2022-08-22T22:37:00.108Z,99.9
2022-08-22T22:39:30.118Z,99.9
2022-08-22T22:42:00.151Z,99.9
2022-08-22T22:44:30.179Z,99.9
2022-08-22T22:47:00.220Z,99.9
2022-08-22T22:49:30.236Z,99.9
2022-08-22T22:52:00.235Z,99.9
2022-08-22T22:54:30.264Z,99.9
2022-08-22T22:57:00.288Z,99.9
2022-08-22T22:59:30.310Z,99.9
2022-08-22T23:02:00.357Z,99.9
2022-08-22T23:07:00.394Z,99.9
2022-08-22T23:09:38.469Z,99.9
2022-08-22T23:12:00.429Z,99.9
2022-08-22T23:14:30.472Z,99.9
2022-08-22T23:17:00.504Z,99.9
2022-08-22T23:19:30.507Z,99.9
2022-08-22T23:22:00.986Z,99.9
2022-08-22T23:24:30.555Z,99.9
2022-08-22T23:27:00.593Z,99.9
2022-08-22T23:29:30.612Z,99.9
2022-08-22T23:32:00.629Z,99.9
2022-08-22T23:34:30.657Z,99.9
2022-08-22T23:37:00.669Z,99.9
2022-08-22T23:39:30.709Z,99.9
2022-08-22T23:42:00.751Z,99.9
2022-08-22T23:44:30.765Z,99.9
2022-08-22T23:47:00.799Z,99.9
2022-08-22T23:49:30.950Z,99.9
2022-08-22T23:52:00.849Z,99.9
2022-08-22T23:54:30.858Z,99.9
2022-08-22T23:59:31.007Z,99.9
